createdAt,value
2023-02-03T00:00:32.788Z,101371.78
2023-02-03T00:05:33.962Z,101346.13
2023-02-03T00:10:35.224Z,101346.66
2023-02-03T00:15:36.394Z,101337.78
2023-02-03T00:20:37.611Z,101342.00
2023-02-03T00:25:38.915Z,101322.91
2023-02-03T00:30:40.126Z,101315.28
2023-02-03T00:35:41.321Z,101302.00
2023-02-03T00:40:42.507Z,101324.50
2023-02-03T00:45:43.731Z,101321.09
2023-02-03T00:50:44.941Z,101311.16
2023-02-03T00:55:46.133Z,101304.59
2023-02-03T01:00:47.429Z,101307.50
2023-02-03T01:05:48.653Z,101313.28
2023-02-03T01:10:49.881Z,101298.09
2023-02-03T01:15:51.039Z,101306.75
2023-02-03T01:20:52.244Z,101322.72
2023-02-03T01:25:53.494Z,101337.91
2023-02-03T01:30:54.876Z,101355.72
2023-02-03T01:35:56.094Z,101359.69
2023-02-03T01:40:57.400Z,101361.72
2023-02-03T01:45:58.648Z,101353.13
2023-02-03T01:50:59.938Z,101356.00
2023-02-03T01:56:01.161Z,101358.09
2023-02-03T02:01:02.506Z,101367.25
2023-02-03T02:06:03.702Z,101359.38
2023-02-03T02:11:04.932Z,101327.97
2023-02-03T02:16:06.165Z,101341.78
2023-02-03T02:21:07.436Z,101357.50
2023-02-03T02:26:08.961Z,101350.69
2023-02-03T02:31:10.347Z,101337.34
2023-02-03T02:36:11.680Z,101333.94
2023-02-03T02:41:13.224Z,101320.56
2023-02-03T02:46:14.644Z,101305.63
2023-02-03T02:51:15.972Z,101302.00
2023-02-03T02:56:17.289Z,101303.31
2023-02-03T03:01:19.243Z,101323.22
2023-02-03T03:06:20.534Z,101317.41
2023-02-03T03:11:21.777Z,101322.38
2023-02-03T03:16:23.101Z,101321.59
2023-02-03T03:21:24.362Z,101291.19
2023-02-03T03:26:27.783Z,101296.41
2023-02-03T03:31:29.119Z,101308.22
2023-02-03T03:36:30.359Z,101313.44
2023-02-03T03:41:31.592Z,101280.69
2023-02-03T03:46:32.883Z,101295.13
2023-02-03T03:51:34.112Z,101283.09
2023-02-03T03:56:35.291Z,101297.00
2023-02-03T04:01:36.534Z,101293.56
2023-02-03T04:06:37.887Z,101299.91
2023-02-03T04:11:57.890Z,101301.72
2023-02-03T04:16:59.091Z,101296.22
2023-02-03T04:22:00.285Z,101295.41
2023-02-03T04:27:03.172Z,101291.53
2023-02-03T04:32:05.527Z,101303.03
2023-02-03T04:37:06.750Z,101292.78
2023-02-03T04:42:07.957Z,101282.81
2023-02-03T04:47:09.154Z,101287.31
2023-02-03T04:52:10.382Z,101284.97
2023-02-03T04:57:11.598Z,101281.34
2023-02-03T05:02:12.858Z,101264.56
2023-02-03T05:07:14.068Z,101272.97
2023-02-03T05:12:15.286Z,101270.38
2023-02-03T05:17:16.489Z,101265.63
2023-02-03T05:22:17.644Z,101241.28
2023-02-03T05:27:18.858Z,101238.41
2023-02-03T05:32:20.084Z,101236.56
2023-02-03T05:37:21.324Z,101242.88
2023-02-03T05:42:22.572Z,101246.81
2023-02-03T05:47:23.761Z,101256.25
2023-02-03T05:52:25.015Z,101262.53
2023-02-03T05:57:26.235Z,101256.00
2023-02-03T06:02:27.475Z,101273.28
2023-02-03T06:07:28.721Z,101281.94
2023-02-03T06:12:29.981Z,101286.63
2023-02-03T06:17:31.187Z,101285.63
2023-02-03T06:22:32.352Z,101291.66
2023-02-03T06:27:33.584Z,101273.06
2023-02-03T06:32:34.739Z,101272.28
2023-02-03T06:37:36.258Z,101281.97
2023-02-03T06:42:37.445Z,101286.41
2023-02-03T06:47:38.653Z,101280.66
2023-02-03T06:52:39.829Z,101283.00
2023-02-03T06:57:41.013Z,101282.22
2023-02-03T07:02:42.343Z,101277.75
2023-02-03T07:07:43.619Z,101281.19
2023-02-03T07:12:44.844Z,101280.13
2023-02-03T07:17:48.503Z,101284.63
2023-02-03T07:22:49.741Z,101275.97
2023-02-03T07:27:50.981Z,101288.25
2023-02-03T07:32:52.202Z,101294.31
2023-02-03T07:37:53.415Z,101293.00
2023-02-03T07:42:54.672Z,101285.97
2023-02-03T07:47:55.900Z,101282.03
2023-02-03T07:52:57.227Z,101298.78
2023-02-03T07:57:58.426Z,101286.75
2023-02-03T08:02:59.648Z,101288.56
2023-02-03T08:08:01.006Z,101302.72
2023-02-03T08:13:02.353Z,101301.16
2023-02-03T08:18:03.536Z,101308.22
2023-02-03T08:23:04.797Z,101304.28
2023-02-03T08:28:06.034Z,101318.16
2023-02-03T08:33:07.365Z,101330.22
2023-02-03T08:38:08.600Z,101334.41
2023-02-03T08:43:09.808Z,101327.09
2023-02-03T08:48:11.031Z,101338.38
2023-02-03T08:53:12.275Z,101354.34
2023-02-03T08:58:13.489Z,101337.53
2023-02-03T09:03:14.710Z,101335.41
2023-02-03T09:08:15.957Z,101345.59
2023-02-03T09:13:17.153Z,101341.66
2023-02-03T09:18:18.348Z,101342.69
2023-02-03T09:23:19.505Z,101350.56
2023-02-03T09:28:20.807Z,101345.34
2023-02-03T09:33:22.085Z,101324.41
2023-02-03T09:38:23.293Z,101338.31
2023-02-03T09:43:24.551Z,101342.19
2023-02-03T09:48:25.756Z,101334.34
2023-02-03T09:53:28.275Z,101336.44
2023-02-03T09:58:29.523Z,101328.03
2023-02-03T10:03:30.723Z,101349.50
2023-02-03T10:08:31.978Z,101346.34
2023-02-03T10:13:33.197Z,101353.63
2023-02-03T10:18:34.410Z,101365.16
2023-02-03T10:23:35.603Z,101374.03
2023-02-03T10:28:37.091Z,101362.50
2023-02-03T10:33:38.294Z,101349.91
2023-02-03T10:38:39.520Z,101358.78
2023-02-03T10:43:53.055Z,101353.78
2023-02-03T10:48:54.299Z,101356.13
2023-02-03T10:53:55.539Z,101354.00
2023-02-03T10:58:56.863Z,101350.84
2023-02-03T11:03:58.337Z,101361.84
2023-02-03T11:08:59.651Z,101349.06
2023-02-03T11:14:00.895Z,101347.25
2023-02-03T11:19:02.774Z,101337.34
2023-02-03T11:24:04.036Z,101312.50
2023-02-03T11:29:06.406Z,101326.66
2023-02-03T11:34:07.706Z,101337.94
2023-02-03T11:39:09.011Z,101318.63
2023-02-03T11:44:10.245Z,101345.88
2023-02-03T11:49:11.423Z,101355.41
2023-02-03T11:54:12.595Z,101330.84
2023-02-03T11:59:13.826Z,101343.97
2023-02-03T12:04:15.077Z,101345.53
2023-02-03T12:09:17.887Z,101345.03
2023-02-03T12:14:19.146Z,101346.13
2023-02-03T12:19:20.332Z,101342.44
2023-02-03T12:24:22.153Z,101339.81
2023-02-03T12:29:23.524Z,101333.06
2023-02-03T12:34:24.700Z,101333.59
2023-02-03T12:39:25.853Z,101343.03
2023-02-03T12:44:27.152Z,101346.97
2023-02-03T12:49:28.636Z,101340.13
2023-02-03T12:54:29.799Z,101331.25
2023-02-03T12:59:31.065Z,101331.50
2023-02-03T13:04:32.317Z,101339.59
2023-02-03T13:09:33.514Z,101338.28
2023-02-03T13:14:34.697Z,101334.63
2023-02-03T13:19:35.948Z,101322.06
2023-02-03T13:24:37.165Z,101331.25
2023-02-03T13:29:38.363Z,101328.91
2023-02-03T13:34:39.595Z,101328.41
2023-02-03T13:39:40.879Z,101337.63
2023-02-03T13:44:42.215Z,101345.50
2023-02-03T13:49:46.265Z,101340.03
2023-02-03T13:54:47.500Z,101323.81
2023-02-03T13:59:49.744Z,101303.91
2023-02-03T14:04:52.997Z,101304.72
2023-02-03T14:09:55.246Z,101310.50
2023-02-03T14:14:58.118Z,101337.28
2023-02-03T14:19:59.351Z,101341.19
2023-02-03T14:25:00.554Z,101349.81
2023-02-03T14:30:01.792Z,101356.88
2023-02-03T14:35:03.028Z,101350.59
2023-02-03T14:40:06.930Z,101328.00
2023-02-03T14:45:08.711Z,101324.38
2023-02-03T14:50:09.904Z,101328.31
2023-02-03T14:55:11.157Z,101339.56
2023-02-03T15:00:13.106Z,101339.31
2023-02-03T15:05:14.470Z,101347.19
2023-02-03T15:10:15.830Z,101363.47
2023-02-03T15:15:17.016Z,101355.81
2023-02-03T15:20:18.178Z,101361.56
2023-02-03T15:25:19.426Z,101371.53
2023-02-03T15:30:20.615Z,101398.75
2023-02-03T15:35:21.917Z,101409.88
2023-02-03T15:40:26.393Z,101337.63
2023-02-03T15:45:27.617Z,101438.19
2023-02-03T15:50:29.180Z,101453.34
2023-02-03T15:55:30.809Z,101449.84
2023-02-03T16:00:32.241Z,101457.91
2023-02-03T16:05:33.560Z,101456.84
2023-02-03T16:10:34.881Z,101461.50
2023-02-03T16:15:36.140Z,101471.19
2023-02-03T16:20:37.553Z,101473.25
2023-02-03T16:25:38.789Z,101487.66
2023-02-03T16:30:58.976Z,101482.66
2023-02-03T16:36:19.069Z,101491.63
2023-02-03T16:41:38.938Z,101496.84
2023-02-03T16:46:58.655Z,101494.25
2023-02-03T16:51:59.843Z,101497.94
2023-02-03T16:57:01.065Z,101502.22
2023-02-03T17:02:02.377Z,101516.09
2023-02-03T17:07:05.194Z,101528.69
2023-02-03T17:12:06.614Z,101521.88
2023-02-03T17:17:07.922Z,101536.47
2023-02-03T17:22:09.218Z,101527.59
2023-02-03T17:27:10.432Z,101537.25
2023-02-03T17:32:15.103Z,101542.50
2023-02-03T17:37:16.459Z,101549.00
2023-02-03T17:58:04.511Z,101550.69
2023-02-03T18:03:05.712Z,101575.28
2023-02-03T18:08:12.402Z,101574.50
2023-02-03T18:13:18.352Z,101574.78
2023-02-03T18:18:21.284Z,101580.03
2023-02-03T18:23:22.481Z,101587.88
2023-02-03T18:28:23.753Z,101593.34
2023-02-03T18:33:24.958Z,101604.03
2023-02-03T18:38:26.218Z,101609.75
2023-02-03T18:43:27.452Z,101618.06
2023-02-03T18:48:28.677Z,101619.59
2023-02-03T18:53:31.195Z,101624.97
2023-02-03T18:58:32.409Z,101632.00
2023-02-03T19:03:33.594Z,101637.81
2023-02-03T19:08:34.804Z,101626.06
2023-02-03T19:13:36.015Z,101630.59
2023-02-03T19:18:37.324Z,101634.13
2023-02-03T19:23:38.582Z,101634.78
2023-02-03T19:28:39.844Z,101636.28
2023-02-03T19:33:41.121Z,101646.81
2023-02-03T19:38:42.358Z,101656.75
2023-02-03T19:43:43.571Z,101661.47
2023-02-03T19:48:44.821Z,101657.69
2023-02-03T19:53:46.012Z,101664.50
2023-02-03T19:58:51.944Z,101676.66
2023-02-03T20:03:53.138Z,101684.91
2023-02-03T20:08:56.152Z,101691.00
2023-02-03T20:13:57.381Z,101691.38
2023-02-03T20:19:00.594Z,101706.16
2023-02-03T20:24:02.053Z,101714.56
2023-02-03T20:29:03.212Z,101713.75
2023-02-03T20:34:04.494Z,101712.47
2023-02-03T20:39:05.658Z,101709.41
2023-02-03T20:44:07.731Z,101709.09
2023-02-03T20:49:09.022Z,101717.25
2023-02-03T20:54:10.258Z,101714.09
2023-02-03T20:59:11.454Z,101724.56
2023-02-03T21:04:31.228Z,101726.03
2023-02-03T21:09:32.432Z,101745.88
2023-02-03T21:14:33.617Z,101756.09
2023-02-03T21:19:35.201Z,101738.00
2023-02-03T21:24:37.800Z,101743.25
2023-02-03T21:29:39.025Z,101744.34
2023-02-03T21:34:40.186Z,101745.78
2023-02-03T21:39:41.369Z,101747.75
2023-02-03T21:44:42.565Z,101756.69
2023-02-03T21:49:43.796Z,101763.44
2023-02-03T21:54:45.305Z,101756.47
2023-02-03T21:59:47.039Z,101758.31
2023-02-03T22:04:48.228Z,101765.34
2023-02-03T22:09:51.471Z,101774.22
2023-02-03T22:14:52.732Z,101779.91
2023-02-03T22:19:54.041Z,101779.59
2023-02-03T22:24:55.282Z,101781.44
2023-02-03T22:29:56.559Z,101796.31
2023-02-03T22:34:57.748Z,101793.13
2023-02-03T22:39:58.964Z,101799.38
2023-02-03T22:45:00.197Z,101823.75
2023-02-03T22:50:01.399Z,101813.75
2023-02-03T22:55:02.659Z,101818.19
2023-02-03T23:00:03.862Z,101833.28
2023-02-03T23:05:05.192Z,101839.88
2023-02-03T23:10:06.428Z,101836.94
2023-02-03T23:15:07.639Z,101853.66
2023-02-03T23:20:09.276Z,101864.94
2023-02-03T23:25:10.489Z,101847.63
2023-02-03T23:30:11.702Z,101857.78
2023-02-03T23:35:31.542Z,101863.00
2023-02-03T23:40:33.110Z,101864.13
2023-02-03T23:45:34.453Z,101871.84
2023-02-03T23:50:35.680Z,101879.47
2023-02-03T23:55:36.921Z,101882.31
